EJU254Y LPPT-LOWW
Flight info
| Callsign | EJU254Y |
|---|---|
| Flight time | N/A |
| Altitude | 38000 |
| Route | ORVED DCT UREDI DCT DIPOL DCT RBO DCT PINAR DCT SEGRE DCT BRITO DCT PISUS DCT PONEN DCT SEROX DCT VILAR/N0460F390 DCT KARES/N0460F380 DCT BISES DCT BCN DCT SALON DCT AGENA M985 LUMAS DCT UNANA DCT STP DCT RAPED DCT PIGOS DCT EKSID DCT NOSTA DCT EGHIN DCT DORAV DCT MISPO DCT OTKEK/N0457F390 DCT ARALD DCT ABTAN |
| Aircraft | A20N/M-SDE2E3FGHIRWXY/LB1 |
Departure
| Time | N/A |
|---|---|
| Airport | Lisbon Humberto Delgado Airport (LPPT) |
Arrival
| Time | 2026-05-06 20:40 |
|---|---|
| Airport | Vienna International Airport (LOWW) |
| Time | Latitude | Longitude | Altitude | Speed | Heading |
|---|---|---|---|---|---|
| 2026-05-06 19:19 | 44.39840 | 8.97618 | 38902 ft | 495 kts | 51° |
| 2026-05-06 19:19 | 44.44167 | 9.05137 | 38904 ft | 495 kts | 51° |
| 2026-05-06 19:20 | 44.48486 | 9.12650 | 38901 ft | 496 kts | 51° |
| 2026-05-06 19:20 | 44.52808 | 9.20181 | 38904 ft | 496 kts | 51° |
| 2026-05-06 19:21 | 44.57127 | 9.27729 | 38893 ft | 496 kts | 51° |
| 2026-05-06 19:21 | 44.61410 | 9.35231 | 38757 ft | 495 kts | 52° |
| 2026-05-06 19:21 | 44.63558 | 9.39001 | 38309 ft | 494 kts | 52° |
| 2026-05-06 19:22 | 44.65698 | 9.42763 | 37963 ft | 491 kts | 52° |
| 2026-05-06 19:22 | 44.70004 | 9.50347 | 37873 ft | 501 kts | 52° |
| 2026-05-06 19:23 | 44.74360 | 9.58039 | 37868 ft | 503 kts | 52° |
| 2026-05-06 19:23 | 44.78710 | 9.65742 | 37861 ft | 502 kts | 52° |
| 2026-05-06 19:24 | 44.83028 | 9.73406 | 37857 ft | 503 kts | 52° |
| 2026-05-06 19:24 | 44.87376 | 9.81145 | 37859 ft | 503 kts | 52° |
| 2026-05-06 19:25 | 44.91709 | 9.88880 | 37854 ft | 502 kts | 52° |
| 2026-05-06 19:25 | 44.96031 | 9.96617 | 37854 ft | 501 kts | 52° |
| 2026-05-06 19:26 | 45.00344 | 10.04356 | 37851 ft | 501 kts | 52° |
| 2026-05-06 19:26 | 45.04671 | 10.11974 | 37849 ft | 500 kts | 49° |
| 2026-05-06 19:27 | 45.09263 | 10.19379 | 37841 ft | 500 kts | 49° |
| 2026-05-06 19:27 | 45.13842 | 10.26795 | 37856 ft | 500 kts | 49° |
| 2026-05-06 19:28 | 45.18391 | 10.34258 | 37867 ft | 500 kts | 49° |
| 2026-05-06 19:28 | 45.22902 | 10.41697 | 37876 ft | 501 kts | 49° |
| 2026-05-06 19:29 | 45.27443 | 10.49205 | 37876 ft | 501 kts | 49° |
| 2026-05-06 19:29 | 45.31982 | 10.56729 | 37879 ft | 502 kts | 49° |
| 2026-05-06 19:30 | 45.36517 | 10.64284 | 37876 ft | 503 kts | 51° |
| 2026-05-06 19:30 | 45.40715 | 10.72231 | 37883 ft | 503 kts | 53° |
| 2026-05-06 19:31 | 45.44907 | 10.80202 | 37894 ft | 503 kts | 53° |
| 2026-05-06 19:31 | 45.51134 | 10.92094 | 37882 ft | 500 kts | 54° |
| 2026-05-06 19:32 | 45.55276 | 11.00045 | 37887 ft | 499 kts | 54° |
| 2026-05-06 19:32 | 45.59405 | 11.07996 | 37891 ft | 498 kts | 54° |
| 2026-05-06 19:33 | 45.63495 | 11.15894 | 37897 ft | 497 kts | 54° |
| 2026-05-06 19:33 | 45.67597 | 11.23836 | 37912 ft | 496 kts | 54° |
| 2026-05-06 19:34 | 45.71690 | 11.31785 | 37916 ft | 496 kts | 54° |
| 2026-05-06 19:34 | 45.75776 | 11.39743 | 37923 ft | 495 kts | 54° |
| 2026-05-06 19:35 | 45.79847 | 11.47694 | 37929 ft | 495 kts | 54° |
| 2026-05-06 19:35 | 45.83910 | 11.55649 | 37939 ft | 495 kts | 54° |
| 2026-05-06 19:36 | 45.87972 | 11.63625 | 37946 ft | 494 kts | 54° |
| 2026-05-06 19:36 | 45.91998 | 11.71554 | 37937 ft | 496 kts | 54° |
| 2026-05-06 19:37 | 45.96048 | 11.79553 | 37938 ft | 493 kts | 54° |
| 2026-05-06 19:37 | 46.00071 | 11.87522 | 37925 ft | 493 kts | 54° |
| 2026-05-06 19:38 | 46.04096 | 11.95517 | 37922 ft | 493 kts | 54° |
| 2026-05-06 19:38 | 46.08109 | 12.03510 | 37915 ft | 492 kts | 54° |
| 2026-05-06 19:39 | 46.12086 | 12.11454 | 37917 ft | 492 kts | 54° |
| 2026-05-06 19:39 | 46.16084 | 12.19464 | 37916 ft | 492 kts | 54° |
| 2026-05-06 19:40 | 46.20070 | 12.27471 | 37921 ft | 492 kts | 54° |
| 2026-05-06 19:40 | 46.24062 | 12.35514 | 37917 ft | 491 kts | 55° |
| 2026-05-06 19:41 | 46.28027 | 12.43523 | 37909 ft | 489 kts | 54° |
| 2026-05-06 19:41 | 46.31995 | 12.51564 | 37918 ft | 491 kts | 54° |
| 2026-05-06 19:42 | 46.35921 | 12.59543 | 37929 ft | 490 kts | 55° |
| 2026-05-06 19:42 | 46.39867 | 12.67583 | 37933 ft | 489 kts | 55° |
| 2026-05-06 19:43 | 46.43799 | 12.75617 | 37936 ft | 488 kts | 55° |
| 2026-05-06 19:43 | 46.47717 | 12.83648 | 37935 ft | 487 kts | 55° |
| 2026-05-06 19:44 | 46.51633 | 12.91698 | 37930 ft | 488 kts | 55° |
| 2026-05-06 19:44 | 46.55510 | 12.99689 | 37931 ft | 487 kts | 55° |
| 2026-05-06 19:45 | 46.59406 | 13.07744 | 37943 ft | 487 kts | 55° |
| 2026-05-06 19:45 | 46.63292 | 13.15799 | 37924 ft | 486 kts | 55° |
| 2026-05-06 19:46 | 46.66971 | 13.23447 | 37920 ft | 486 kts | 56° |
| 2026-05-06 19:46 | 46.70303 | 13.31831 | 37928 ft | 484 kts | 64° |
| 2026-05-06 19:47 | 46.73399 | 13.40551 | 37909 ft | 485 kts | 63° |
| 2026-05-06 19:47 | 46.76512 | 13.49271 | 37902 ft | 483 kts | 64° |
| 2026-05-06 19:48 | 46.79598 | 13.57985 | 37900 ft | 485 kts | 64° |
| 2026-05-06 19:48 | 46.82666 | 13.66687 | 37908 ft | 485 kts | 64° |
| 2026-05-06 19:49 | 46.85743 | 13.75451 | 37904 ft | 485 kts | 64° |
| 2026-05-06 19:49 | 46.88818 | 13.84235 | 37915 ft | 485 kts | 64° |
| 2026-05-06 19:50 | 46.91888 | 13.93029 | 37827 ft | 486 kts | 64° |
| 2026-05-06 19:50 | 46.94967 | 14.01883 | 37895 ft | 488 kts | 64° |
| 2026-05-06 19:51 | 46.98112 | 14.10954 | 37891 ft | 486 kts | 64° |
| 2026-05-06 19:51 | 47.01066 | 14.19505 | 37876 ft | 487 kts | 65° |
| 2026-05-06 19:52 | 47.04118 | 14.28369 | 37895 ft | 487 kts | 65° |
| 2026-05-06 19:52 | 47.07163 | 14.37242 | 37879 ft | 486 kts | 65° |
| 2026-05-06 19:53 | 47.10175 | 14.46142 | 37868 ft | 487 kts | 68° |
| 2026-05-06 19:53 | 47.11432 | 14.50746 | 37745 ft | 486 kts | 73° |
| 2026-05-06 19:53 | 47.12390 | 14.55431 | 37443 ft | 485 kts | 79° |
| 2026-05-06 19:54 | 47.13205 | 14.60262 | 36768 ft | 489 kts | 78° |
| 2026-05-06 19:54 | 47.14038 | 14.65104 | 36102 ft | 490 kts | 78° |
| 2026-05-06 19:54 | 47.14875 | 14.69944 | 35392 ft | 490 kts | 78° |
| 2026-05-06 19:54 | 47.15713 | 14.74814 | 34657 ft | 492 kts | 78° |
| 2026-05-06 19:55 | 47.16549 | 14.79691 | 33891 ft | 494 kts | 78° |
| 2026-05-06 19:55 | 47.17383 | 14.84595 | 33092 ft | 495 kts | 78° |
| 2026-05-06 19:55 | 47.18217 | 14.89504 | 32302 ft | 496 kts | 78° |
| 2026-05-06 19:55 | 47.19051 | 14.94430 | 31500 ft | 496 kts | 78° |
| 2026-05-06 19:56 | 47.19880 | 14.99341 | 30830 ft | 494 kts | 78° |
| 2026-05-06 19:56 | 47.20701 | 15.04215 | 30291 ft | 488 kts | 78° |
| 2026-05-06 19:56 | 47.21501 | 15.08981 | 29677 ft | 484 kts | 78° |
| 2026-05-06 19:56 | 47.22311 | 15.13822 | 29084 ft | 478 kts | 78° |
| 2026-05-06 19:57 | 47.23089 | 15.18483 | 28518 ft | 473 kts | 78° |
| 2026-05-06 19:57 | 47.23866 | 15.23152 | 27963 ft | 467 kts | 78° |
| 2026-05-06 19:57 | 47.24634 | 15.27776 | 27392 ft | 463 kts | 78° |
| 2026-05-06 19:57 | 47.25391 | 15.32350 | 26846 ft | 458 kts | 78° |
| 2026-05-06 19:58 | 47.26138 | 15.36883 | 26293 ft | 453 kts | 78° |
| 2026-05-06 19:58 | 47.26876 | 15.41369 | 25745 ft | 449 kts | 78° |
| 2026-05-06 19:58 | 47.27606 | 15.45814 | 25202 ft | 444 kts | 78° |
| 2026-05-06 19:58 | 47.28327 | 15.50215 | 24651 ft | 441 kts | 78° |
| 2026-05-06 19:59 | 47.29041 | 15.54589 | 24100 ft | 438 kts | 79° |
| 2026-05-06 19:59 | 47.29737 | 15.58856 | 23754 ft | 429 kts | 79° |
| 2026-05-06 19:59 | 47.30422 | 15.63067 | 23605 ft | 415 kts | 79° |
| 2026-05-06 19:59 | 47.31079 | 15.67105 | 23435 ft | 397 kts | 79° |
| 2026-05-06 20:00 | 47.31706 | 15.70973 | 23178 ft | 380 kts | 79° |
| 2026-05-06 20:00 | 47.32311 | 15.74721 | 22568 ft | 374 kts | 79° |
| 2026-05-06 20:00 | 47.32906 | 15.78433 | 21871 ft | 371 kts | 79° |
| 2026-05-06 20:00 | 47.33494 | 15.82114 | 21212 ft | 368 kts | 79° |
| 2026-05-06 20:01 | 47.34078 | 15.85764 | 20582 ft | 364 kts | 79° |
| 2026-05-06 20:01 | 47.34656 | 15.89385 | 19969 ft | 361 kts | 79° |
| 2026-05-06 20:01 | 47.35222 | 15.92929 | 19371 ft | 359 kts | 79° |
| 2026-05-06 20:01 | 47.35789 | 15.96489 | 18793 ft | 355 kts | 79° |
| 2026-05-06 20:02 | 47.36575 | 15.99942 | 18296 ft | 357 kts | 63° |
| 2026-05-06 20:02 | 47.38027 | 16.02881 | 17938 ft | 353 kts | 43° |
| 2026-05-06 20:02 | 47.39994 | 16.04976 | 17839 ft | 350 kts | 25° |
| 2026-05-06 20:02 | 47.42275 | 16.06255 | 17832 ft | 352 kts | 16° |
| 2026-05-06 20:03 | 47.44590 | 16.07400 | 17735 ft | 350 kts | 16° |
| 2026-05-06 20:03 | 47.46895 | 16.08542 | 17415 ft | 349 kts | 16° |
| 2026-05-06 20:03 | 47.49191 | 16.09683 | 16967 ft | 348 kts | 16° |
| 2026-05-06 20:03 | 47.51479 | 16.10819 | 16543 ft | 345 kts | 16° |
| 2026-05-06 20:04 | 47.53755 | 16.11949 | 16083 ft | 345 kts | 17° |
| 2026-05-06 20:04 | 47.55993 | 16.13062 | 15677 ft | 343 kts | 17° |
| 2026-05-06 20:04 | 47.58239 | 16.14182 | 15250 ft | 340 kts | 17° |
| 2026-05-06 20:04 | 47.60481 | 16.15296 | 14794 ft | 339 kts | 17° |
| 2026-05-06 20:05 | 47.62709 | 16.16408 | 14439 ft | 337 kts | 17° |
| 2026-05-06 20:05 | 47.64920 | 16.17516 | 14027 ft | 335 kts | 17° |
| 2026-05-06 20:05 | 47.67124 | 16.18610 | 13621 ft | 332 kts | 16° |
| 2026-05-06 20:05 | 47.69308 | 16.19701 | 13198 ft | 330 kts | 16° |
| 2026-05-06 20:06 | 47.71470 | 16.20786 | 12876 ft | 324 kts | 17° |
| 2026-05-06 20:06 | 47.73579 | 16.21848 | 12795 ft | 319 kts | 16° |
| 2026-05-06 20:06 | 47.75719 | 16.22919 | 12786 ft | 330 kts | 17° |
| 2026-05-06 20:06 | 47.77837 | 16.24206 | 12778 ft | 328 kts | 31° |
| 2026-05-06 20:07 | 47.79496 | 16.26438 | 12780 ft | 328 kts | 55° |
| 2026-05-06 20:07 | 47.80461 | 16.29463 | 12779 ft | 324 kts | 79° |
| 2026-05-06 20:07 | 47.80576 | 16.32759 | 12778 ft | 317 kts | 103° |
| 2026-05-06 20:07 | 47.79876 | 16.35805 | 12781 ft | 309 kts | 125° |
| 2026-05-06 20:08 | 47.78519 | 16.38200 | 12785 ft | 300 kts | 146° |
| 2026-05-06 20:08 | 47.76738 | 16.39688 | 12764 ft | 291 kts | 166° |
| 2026-05-06 20:08 | 47.74789 | 16.40178 | 12571 ft | 282 kts | 184° |
| 2026-05-06 20:08 | 47.72878 | 16.39680 | 12187 ft | 277 kts | 202° |
| 2026-05-06 20:09 | 47.71229 | 16.38293 | 11886 ft | 270 kts | 220° |
| 2026-05-06 20:09 | 47.69802 | 16.36530 | 11796 ft | 269 kts | 220° |
| 2026-05-06 20:09 | 47.68354 | 16.34774 | 11796 ft | 275 kts | 220° |
| 2026-05-06 20:09 | 47.66897 | 16.33021 | 11794 ft | 263 kts | 220° |
| 2026-05-06 20:10 | 47.65517 | 16.31370 | 11796 ft | 247 kts | 220° |
| 2026-05-06 20:10 | 47.64226 | 16.29821 | 11797 ft | 231 kts | 220° |
| 2026-05-06 20:10 | 47.63020 | 16.28373 | 11797 ft | 219 kts | 220° |
| 2026-05-06 20:10 | 47.61893 | 16.26764 | 11809 ft | 229 kts | 231° |
| 2026-05-06 20:11 | 47.61031 | 16.24782 | 11808 ft | 229 kts | 243° |
| 2026-05-06 20:11 | 47.60542 | 16.22531 | 11807 ft | 232 kts | 258° |
| 2026-05-06 20:11 | 47.60511 | 16.20114 | 11811 ft | 238 kts | 274° |
| 2026-05-06 20:11 | 47.60978 | 16.17745 | 11805 ft | 243 kts | 290° |
| 2026-05-06 20:12 | 47.61927 | 16.15640 | 11779 ft | 250 kts | 307° |
| 2026-05-06 20:12 | 47.63272 | 16.14035 | 11577 ft | 256 kts | 325° |
| 2026-05-06 20:12 | 47.64973 | 16.13078 | 11138 ft | 269 kts | 345° |
| 2026-05-06 20:12 | 47.66873 | 16.13007 | 10696 ft | 278 kts | 6° |
| 2026-05-06 20:13 | 47.68718 | 16.13921 | 10344 ft | 283 kts | 27° |
| 2026-05-06 20:13 | 47.70290 | 16.15656 | 10089 ft | 279 kts | 39° |
| 2026-05-06 20:13 | 47.71755 | 16.17478 | 10020 ft | 276 kts | 38° |
| 2026-05-06 20:13 | 47.73265 | 16.19319 | 10016 ft | 285 kts | 38° |
| 2026-05-06 20:14 | 47.74804 | 16.21183 | 10017 ft | 284 kts | 38° |
| 2026-05-06 20:14 | 47.76243 | 16.23097 | 10005 ft | 281 kts | 52° |
| 2026-05-06 20:14 | 47.77298 | 16.25547 | 10010 ft | 283 kts | 60° |
| 2026-05-06 20:14 | 47.78302 | 16.28074 | 10012 ft | 283 kts | 60° |
| 2026-05-06 20:15 | 47.79297 | 16.30587 | 10009 ft | 281 kts | 60° |
| 2026-05-06 20:15 | 47.80294 | 16.33090 | 10008 ft | 282 kts | 60° |
| 2026-05-06 20:15 | 47.81296 | 16.35594 | 10007 ft | 281 kts | 60° |
| 2026-05-06 20:15 | 47.82297 | 16.38088 | 10004 ft | 281 kts | 60° |
| 2026-05-06 20:16 | 47.83354 | 16.40538 | 10000 ft | 282 kts | 48° |
| 2026-05-06 20:16 | 47.84898 | 16.42264 | 10010 ft | 278 kts | 22° |
| 2026-05-06 20:16 | 47.86648 | 16.43405 | 10010 ft | 278 kts | 21° |
| 2026-05-06 20:16 | 47.88432 | 16.44527 | 10008 ft | 278 kts | 21° |
| 2026-05-06 20:17 | 47.90213 | 16.45649 | 10013 ft | 278 kts | 21° |
| 2026-05-06 20:17 | 47.91985 | 16.46777 | 10002 ft | 277 kts | 21° |
| 2026-05-06 20:17 | 47.93761 | 16.47916 | 10000 ft | 279 kts | 21° |
| 2026-05-06 20:17 | 47.95534 | 16.49059 | 10003 ft | 277 kts | 21° |
| 2026-05-06 20:18 | 47.97307 | 16.50205 | 10004 ft | 278 kts | 21° |
| 2026-05-06 20:18 | 47.99082 | 16.51354 | 10003 ft | 278 kts | 21° |
| 2026-05-06 20:18 | 48.00859 | 16.52505 | 10002 ft | 278 kts | 21° |
| 2026-05-06 20:18 | 48.02610 | 16.53640 | 10003 ft | 278 kts | 21° |
| 2026-05-06 20:19 | 48.04386 | 16.54791 | 10006 ft | 278 kts | 21° |
| 2026-05-06 20:19 | 48.06158 | 16.55941 | 10004 ft | 278 kts | 21° |
| 2026-05-06 20:19 | 48.07935 | 16.57096 | 10003 ft | 278 kts | 21° |
| 2026-05-06 20:19 | 48.09712 | 16.58251 | 10003 ft | 279 kts | 22° |
| 2026-05-06 20:20 | 48.11486 | 16.59405 | 10002 ft | 278 kts | 22° |
| 2026-05-06 20:20 | 48.13255 | 16.60558 | 9882 ft | 276 kts | 22° |
| 2026-05-06 20:20 | 48.15012 | 16.61702 | 9590 ft | 276 kts | 22° |
| 2026-05-06 20:20 | 48.16768 | 16.62848 | 9245 ft | 275 kts | 22° |
| 2026-05-06 20:21 | 48.18515 | 16.63989 | 8906 ft | 274 kts | 22° |
| 2026-05-06 20:21 | 48.20260 | 16.65128 | 8564 ft | 273 kts | 22° |
| 2026-05-06 20:21 | 48.22015 | 16.66009 | 8236 ft | 268 kts | 4° |
| 2026-05-06 20:21 | 48.23831 | 16.65803 | 7879 ft | 260 kts | 340° |
| 2026-05-06 20:22 | 48.25567 | 16.65057 | 7557 ft | 259 kts | 340° |
| 2026-05-06 20:22 | 48.27294 | 16.64318 | 7264 ft | 257 kts | 340° |
| 2026-05-06 20:22 | 48.29007 | 16.63592 | 6989 ft | 254 kts | 340° |
| 2026-05-06 20:22 | 48.30729 | 16.63008 | 6664 ft | 257 kts | 354° |
| 2026-05-06 20:23 | 48.32483 | 16.63505 | 6351 ft | 261 kts | 19° |
| 2026-05-06 20:23 | 48.34155 | 16.64528 | 6092 ft | 258 kts | 20° |
| 2026-05-06 20:23 | 48.35793 | 16.65548 | 5994 ft | 255 kts | 20° |
| 2026-05-06 20:23 | 48.37448 | 16.66580 | 5994 ft | 261 kts | 20° |
| 2026-05-06 20:24 | 48.39114 | 16.67624 | 5992 ft | 258 kts | 20° |
| 2026-05-06 20:24 | 48.40781 | 16.68663 | 5988 ft | 261 kts | 20° |
| 2026-05-06 20:24 | 48.42456 | 16.69709 | 5983 ft | 260 kts | 20° |
| 2026-05-06 20:24 | 48.44127 | 16.70751 | 5990 ft | 261 kts | 20° |
| 2026-05-06 20:25 | 48.45870 | 16.71353 | 5988 ft | 256 kts | 355° |
| 2026-05-06 20:25 | 48.47630 | 16.71122 | 5980 ft | 253 kts | 350° |
| 2026-05-06 20:25 | 48.49370 | 16.70848 | 5978 ft | 248 kts | 350° |
| 2026-05-06 20:25 | 48.51044 | 16.70593 | 5980 ft | 234 kts | 350° |
| 2026-05-06 20:26 | 48.52621 | 16.70356 | 5983 ft | 226 kts | 350° |
| 2026-05-06 20:26 | 48.54219 | 16.70101 | 5980 ft | 233 kts | 350° |
| 2026-05-06 20:26 | 48.55804 | 16.69848 | 5977 ft | 233 kts | 350° |
| 2026-05-06 20:26 | 48.57422 | 16.69588 | 5979 ft | 234 kts | 350° |
| 2026-05-06 20:27 | 48.59043 | 16.69333 | 5983 ft | 234 kts | 350° |
| 2026-05-06 20:27 | 48.60657 | 16.69071 | 5986 ft | 233 kts | 350° |
| 2026-05-06 20:27 | 48.62274 | 16.68810 | 5984 ft | 235 kts | 350° |
| 2026-05-06 20:27 | 48.63841 | 16.68280 | 5987 ft | 228 kts | 327° |
| 2026-05-06 20:28 | 48.64970 | 16.66722 | 5981 ft | 217 kts | 294° |
| 2026-05-06 20:28 | 48.65309 | 16.64583 | 5980 ft | 209 kts | 261° |
| 2026-05-06 20:28 | 48.64847 | 16.62528 | 5981 ft | 208 kts | 233° |
| 2026-05-06 20:28 | 48.63793 | 16.61080 | 5984 ft | 205 kts | 216° |
| 2026-05-06 20:29 | 48.62565 | 16.59986 | 5983 ft | 207 kts | 202° |
| 2026-05-06 20:29 | 48.61199 | 16.59265 | 5977 ft | 207 kts | 200° |
| 2026-05-06 20:29 | 48.59856 | 16.58586 | 5986 ft | 206 kts | 200° |
| 2026-05-06 20:29 | 48.58499 | 16.57915 | 5987 ft | 205 kts | 200° |
| 2026-05-06 20:30 | 48.57146 | 16.57238 | 5803 ft | 205 kts | 200° |
| 2026-05-06 20:30 | 48.54434 | 16.55930 | 5138 ft | 204 kts | 200° |
| 2026-05-06 20:30 | 48.53103 | 16.55316 | 4995 ft | 198 kts | 200° |
| 2026-05-06 20:31 | 48.51749 | 16.54702 | 4982 ft | 208 kts | 200° |
| 2026-05-06 20:31 | 48.50373 | 16.54072 | 4976 ft | 205 kts | 200° |
| 2026-05-06 20:31 | 48.49004 | 16.53446 | 4979 ft | 206 kts | 200° |
| 2026-05-06 20:31 | 48.47631 | 16.52826 | 4985 ft | 208 kts | 200° |
| 2026-05-06 20:32 | 48.46254 | 16.52203 | 4981 ft | 201 kts | 200° |
| 2026-05-06 20:32 | 48.44975 | 16.51630 | 4990 ft | 181 kts | 200° |
| 2026-05-06 20:32 | 48.43749 | 16.51092 | 4991 ft | 188 kts | 200° |
| 2026-05-06 20:32 | 48.42516 | 16.50542 | 4990 ft | 187 kts | 200° |
| 2026-05-06 20:33 | 48.41271 | 16.49982 | 4989 ft | 186 kts | 200° |
| 2026-05-06 20:33 | 48.40029 | 16.49435 | 4993 ft | 186 kts | 200° |
| 2026-05-06 20:33 | 48.38782 | 16.48890 | 4997 ft | 187 kts | 200° |
| 2026-05-06 20:33 | 48.37540 | 16.48339 | 5000 ft | 186 kts | 200° |
| 2026-05-06 20:34 | 48.36259 | 16.47971 | 5005 ft | 190 kts | 187° |
| 2026-05-06 20:34 | 48.34937 | 16.48133 | 5001 ft | 192 kts | 174° |
| 2026-05-06 20:34 | 48.33632 | 16.48598 | 4960 ft | 194 kts | 169° |
| 2026-05-06 20:34 | 48.32331 | 16.49162 | 4762 ft | 194 kts | 169° |
| 2026-05-06 20:35 | 48.31041 | 16.49715 | 4512 ft | 191 kts | 169° |
| 2026-05-06 20:35 | 48.29769 | 16.50257 | 4252 ft | 189 kts | 169° |
| 2026-05-06 20:35 | 48.28528 | 16.50786 | 4004 ft | 186 kts | 169° |
| 2026-05-06 20:35 | 48.27294 | 16.51312 | 3763 ft | 183 kts | 169° |
| 2026-05-06 20:36 | 48.26076 | 16.51830 | 3527 ft | 181 kts | 170° |
| 2026-05-06 20:36 | 48.24873 | 16.52343 | 3294 ft | 178 kts | 170° |
| 2026-05-06 20:36 | 48.23684 | 16.52847 | 3068 ft | 177 kts | 169° |
| 2026-05-06 20:36 | 48.22510 | 16.53348 | 2832 ft | 173 kts | 169° |
| 2026-05-06 20:37 | 48.21384 | 16.53827 | 2607 ft | 163 kts | 169° |
| 2026-05-06 20:37 | 48.20353 | 16.54267 | 2401 ft | 146 kts | 169° |
| 2026-05-06 20:37 | 48.19429 | 16.54660 | 2215 ft | 131 kts | 169° |
| 2026-05-06 20:37 | 48.18547 | 16.55030 | 2051 ft | 133 kts | 168° |
| 2026-05-06 20:38 | 48.17673 | 16.55402 | 1878 ft | 132 kts | 168° |
| 2026-05-06 20:38 | 48.16791 | 16.55776 | 1712 ft | 132 kts | 167° |
| 2026-05-06 20:38 | 48.15903 | 16.56152 | 1521 ft | 134 kts | 167° |
| 2026-05-06 20:38 | 48.14984 | 16.56540 | 1328 ft | 136 kts | 166° |
| 2026-05-06 20:39 | 48.14097 | 16.56909 | 1094 ft | 132 kts | 167° |
| 2026-05-06 20:39 | 48.13222 | 16.57295 | 960 ft | 132 kts | 165° |
| 2026-05-06 20:39 | 48.12341 | 16.57667 | 758 ft | 130 kts | 165° |
| 2026-05-06 20:39 | 48.11447 | 16.58043 | 635 ft | 135 kts | 166° |
| 2026-05-06 20:40 | 48.10611 | 16.58394 | 600 ft | 101 kts | 164° |
| 2026-05-06 20:40 | 48.10127 | 16.58607 | 600 ft | 43 kts | 163° |
| 2026-05-06 20:40 | 48.09899 | 16.58612 | 604 ft | 14 kts | 187° |
| 2026-05-06 20:40 | 48.09743 | 16.58577 | 603 ft | 15 kts | 189° |
| 2026-05-06 20:41 | 48.09674 | 16.58551 | 603 ft | 7 kts | 214° |
| 2026-05-06 20:41 | 48.09639 | 16.58484 | 616 ft | 12 kts | 247° |
| 2026-05-06 20:41 | 48.09666 | 16.58381 | 618 ft | 13 kts | 351° |
| 2026-05-06 20:41 | 48.09760 | 16.58334 | 611 ft | 16 kts | 342° |
| 2026-05-06 20:42 | 48.09815 | 16.58310 | 609 ft | 4 kts | 345° |
| 2026-05-06 20:42 | 48.09899 | 16.58273 | 613 ft | 19 kts | 343° |
| 2026-05-06 20:42 | 48.10054 | 16.58215 | 613 ft | 26 kts | 344° |
| 2026-05-06 20:42 | 48.10180 | 16.58161 | 616 ft | 10 kts | 345° |
| 2026-05-06 20:43 | 48.10276 | 16.58119 | 608 ft | 20 kts | 342° |
| 2026-05-06 20:43 | 48.10360 | 16.58080 | 613 ft | 20 kts | 342° |
| 2026-05-06 20:43 | 48.10520 | 16.58011 | 614 ft | 28 kts | 345° |
| 2026-05-06 20:43 | 48.10698 | 16.57931 | 619 ft | 4 kts | 343° |
| 2026-05-06 20:44 | 48.10728 | 16.57921 | 618 ft | 11 kts | 347° |
| 2026-05-06 20:44 | 48.10837 | 16.57879 | 607 ft | 20 kts | 344° |
| 2026-05-06 20:44 | 48.10988 | 16.57815 | 614 ft | 24 kts | 344° |
| 2026-05-06 20:44 | 48.11040 | 16.57764 | 604 ft | 18 kts | 316° |
| 2026-05-06 20:45 | 48.11113 | 16.57568 | 604 ft | 24 kts | 294° |
| 2026-05-06 20:45 | 48.11195 | 16.57315 | 614 ft | 28 kts | 296° |
| 2026-05-06 20:45 | 48.11281 | 16.57044 | 614 ft | 30 kts | 299° |
| 2026-05-06 20:45 | 48.11357 | 16.56822 | 603 ft | 21 kts | 297° |
| 2026-05-06 20:46 | 48.11433 | 16.56590 | 600 ft | 28 kts | 295° |
| 2026-05-06 20:46 | 48.11516 | 16.56334 | 600 ft | 18 kts | 296° |
| 2026-05-06 20:46 | 48.11577 | 16.56145 | 601 ft | 23 kts | 295° |
| 2026-05-06 20:46 | 48.11655 | 16.55905 | 602 ft | 28 kts | 296° |
| 2026-05-06 20:47 | 48.11747 | 16.55630 | 598 ft | 30 kts | 297° |
| 2026-05-06 20:47 | 48.11803 | 16.55466 | 594 ft | 15 kts | 309° |
| 2026-05-06 20:47 | 48.11906 | 16.55451 | 593 ft | 7 kts | 29° |
| 2026-05-06 20:47 | 48.11940 | 16.55586 | 593 ft | 17 kts | 77° |
| 2026-05-06 20:48 | 48.11950 | 16.55631 | 593 ft | 0 kts | 71° |